createdAt,value
2022-07-28T00:01:20.014Z,99890.09
2022-07-28T00:03:49.007Z,99896.22
2022-07-28T00:06:16.761Z,99897.56
2022-07-28T00:08:44.175Z,99902.44
2022-07-28T00:11:11.501Z,99905.28
2022-07-28T00:13:38.821Z,99902.03
2022-07-28T00:16:07.572Z,99899.72
2022-07-28T00:18:34.925Z,99907.63
2022-07-28T00:21:02.378Z,99907.94
2022-07-28T00:23:38.914Z,99907.94
2022-07-28T00:26:08.116Z,99917.78
2022-07-28T00:28:35.996Z,99917.38
2022-07-28T00:31:07.034Z,99915.53
2022-07-28T00:33:37.274Z,99912.53
2022-07-28T00:36:04.754Z,99914.94
2022-07-28T00:38:34.171Z,99913.50
2022-07-28T00:41:11.570Z,99910.34
2022-07-28T00:43:38.826Z,99920.22
2022-07-28T00:46:06.180Z,99917.38
2022-07-28T00:48:33.672Z,99912.75
2022-07-28T00:51:00.957Z,99922.38
2022-07-28T00:53:29.300Z,99919.22
2022-07-28T00:56:02.684Z,99924.53
2022-07-28T00:58:33.654Z,99932.84
2022-07-28T01:01:00.952Z,99934.63
2022-07-28T01:03:29.193Z,99925.63
2022-07-28T01:06:04.108Z,99925.63
2022-07-28T01:08:50.085Z,99930.81
2022-07-28T01:11:26.333Z,99931.38
2022-07-28T01:13:53.690Z,99922.31
2022-07-28T01:16:22.617Z,99929.03
2022-07-28T01:18:51.459Z,99923.75
2022-07-28T01:21:24.012Z,99919.16
2022-07-28T01:23:58.750Z,99917.31
2022-07-28T01:26:31.775Z,99902.34
2022-07-28T01:29:05.223Z,99896.22
2022-07-28T01:31:36.649Z,99904.50
2022-07-28T01:34:09.533Z,99897.22
2022-07-28T01:36:43.203Z,99895.50
2022-07-28T01:39:10.820Z,99893.19
2022-07-28T01:41:39.603Z,99891.56
2022-07-28T01:44:08.677Z,99898.56
2022-07-28T01:46:37.414Z,99902.75
2022-07-28T01:49:06.588Z,99900.63
2022-07-28T01:51:35.310Z,99904.44
2022-07-28T01:54:03.302Z,99909.16
2022-07-28T01:56:32.532Z,99904.91
2022-07-28T01:59:05.505Z,99907.75
2022-07-28T02:01:36.969Z,99901.94
2022-07-28T02:04:08.228Z,99900.50
2022-07-28T02:06:37.011Z,99902.97
2022-07-28T02:09:05.510Z,99905.28
2022-07-28T02:11:40.039Z,99908.84
2022-07-28T02:14:18.297Z,99895.16
2022-07-28T02:16:48.373Z,99895.16
2022-07-28T02:19:16.939Z,99897.19
2022-07-28T02:21:47.617Z,99891.22
2022-07-28T02:24:17.563Z,99894.91
2022-07-28T02:26:55.802Z,99900.50
2022-07-28T02:29:48.441Z,99915.06
2022-07-28T02:32:27.752Z,99916.97
2022-07-28T02:34:58.440Z,99914.00
2022-07-28T02:37:26.250Z,99919.13
2022-07-28T02:40:00.483Z,99919.97
2022-07-28T02:42:30.797Z,99927.56
2022-07-28T02:45:00.574Z,99927.13
2022-07-28T02:47:30.263Z,99927.28
2022-07-28T02:49:58.601Z,99922.44
2022-07-28T02:52:26.584Z,99921.25
2022-07-28T02:54:54.591Z,99927.00
2022-07-28T02:57:22.671Z,99931.28
2022-07-28T02:59:50.731Z,99934.59
2022-07-28T03:02:21.735Z,99934.34
2022-07-28T03:04:59.182Z,99929.34
2022-07-28T03:07:27.246Z,99940.19
2022-07-28T03:09:54.781Z,99942.28
2022-07-28T03:12:22.055Z,99937.47
2022-07-28T03:14:49.417Z,99941.03
2022-07-28T03:17:17.087Z,99936.47
2022-07-28T03:19:44.453Z,99941.34
2022-07-28T03:22:12.102Z,99946.47
2022-07-28T03:24:42.087Z,99939.47
2022-07-28T03:27:23.544Z,99940.44
2022-07-28T03:29:54.320Z,99938.75
2022-07-28T03:32:22.838Z,99942.72
2022-07-28T03:34:50.186Z,99948.00
2022-07-28T03:37:20.692Z,99952.84
2022-07-28T03:39:48.317Z,99960.97
2022-07-28T03:42:17.367Z,99959.00
2022-07-28T03:44:47.843Z,99953.56
2022-07-28T03:47:15.203Z,99953.84
2022-07-28T03:49:45.612Z,99958.81
2022-07-28T03:52:12.924Z,99960.06
2022-07-28T03:54:40.239Z,99955.94
2022-07-28T03:57:07.522Z,99964.34
2022-07-28T03:59:34.794Z,99970.94
2022-07-28T04:02:02.133Z,99980.22
2022-07-28T04:04:29.480Z,99974.94
2022-07-28T04:06:56.800Z,99983.94
2022-07-28T04:09:24.128Z,99991.66
2022-07-28T04:11:51.391Z,99997.06
2022-07-28T04:14:19.190Z,99994.19
2022-07-28T04:16:46.764Z,100002.03
2022-07-28T04:19:14.505Z,99994.63
2022-07-28T04:21:41.800Z,100002.88
2022-07-28T04:24:10.063Z,100000.34
2022-07-28T04:26:37.640Z,100009.19
2022-07-28T04:29:05.166Z,100012.03
2022-07-28T04:31:32.584Z,100014.19
2022-07-28T04:34:00.202Z,100016.75
2022-07-28T04:36:27.579Z,100026.59
2022-07-28T04:38:56.680Z,100023.88
2022-07-28T04:41:23.970Z,100023.72
2022-07-28T04:43:51.240Z,100030.75
2022-07-28T04:46:19.025Z,100023.88
2022-07-28T04:48:46.423Z,100017.72
2022-07-28T04:51:13.771Z,100018.28
2022-07-28T04:53:41.130Z,100022.94
2022-07-28T04:56:08.405Z,100017.81
2022-07-28T04:58:35.687Z,100011.19
2022-07-28T05:01:03.040Z,100009.59
2022-07-28T05:03:35.743Z,100021.09
2022-07-28T05:06:03.600Z,100015.22
2022-07-28T05:08:30.879Z,100012.16
2022-07-28T05:10:58.150Z,100011.72
2022-07-28T05:13:30.353Z,100003.41
2022-07-28T05:16:01.254Z,100002.09
2022-07-28T05:18:28.758Z,100002.25
2022-07-28T05:20:56.035Z,100003.25
2022-07-28T05:23:23.333Z,99995.28
2022-07-28T05:25:50.803Z,100008.69
2022-07-28T05:28:18.154Z,100015.53
2022-07-28T05:30:45.493Z,100018.94
2022-07-28T05:33:14.641Z,100021.06
2022-07-28T05:35:41.946Z,100018.34
2022-07-28T05:38:11.182Z,100017.63
2022-07-28T05:40:38.715Z,100015.78
2022-07-28T05:43:06.045Z,100010.97
2022-07-28T05:45:34.228Z,100019.09
2022-07-28T05:48:01.580Z,100021.38
2022-07-28T05:50:28.863Z,100024.88
2022-07-28T05:52:56.102Z,100021.28
2022-07-28T05:55:23.418Z,100019.72
2022-07-28T05:57:51.046Z,100024.00
2022-07-28T06:00:19.667Z,100029.13
2022-07-28T06:02:49.298Z,100033.84
2022-07-28T06:05:18.346Z,100041.22
2022-07-28T06:07:46.628Z,100042.22
2022-07-28T06:10:15.194Z,100047.22
2022-07-28T06:12:43.434Z,100052.03
2022-07-28T06:15:14.932Z,100050.69
2022-07-28T06:17:42.623Z,100044.75
2022-07-28T06:20:10.908Z,100060.88
2022-07-28T06:22:44.890Z,100061.31
2022-07-28T06:25:16.067Z,100057.69
2022-07-28T06:27:45.445Z,100074.31
2022-07-28T06:30:12.963Z,100085.94
2022-07-28T06:32:40.314Z,100082.19
2022-07-28T06:35:07.940Z,100089.72
2022-07-28T06:37:35.303Z,100094.31
2022-07-28T06:40:02.579Z,100095.69
2022-07-28T06:42:29.939Z,100097.88
2022-07-28T06:44:59.695Z,100098.22
2022-07-28T06:47:27.491Z,100100.94
2022-07-28T06:49:54.760Z,100103.66
2022-07-28T06:52:22.210Z,100113.06
2022-07-28T06:54:53.150Z,100105.25
2022-07-28T06:57:33.425Z,100105.97
2022-07-28T07:00:03.249Z,100108.72
2022-07-28T07:02:30.581Z,100107.44
2022-07-28T07:04:58.273Z,100110.88
2022-07-28T07:07:26.377Z,100107.13
2022-07-28T07:09:53.706Z,100098.94
2022-07-28T07:12:20.991Z,100106.31
2022-07-28T07:14:48.262Z,100105.97
2022-07-28T07:17:15.531Z,100107.38
2022-07-28T07:19:42.810Z,100104.97
2022-07-28T07:22:10.067Z,100107.53
2022-07-28T07:24:38.024Z,100095.91
2022-07-28T07:27:05.346Z,100095.56
2022-07-28T07:29:32.952Z,100084.13
2022-07-28T07:32:00.258Z,100082.78
2022-07-28T07:34:27.598Z,100084.66
2022-07-28T07:36:54.909Z,100072.72
2022-07-28T07:39:22.195Z,100065.03
2022-07-28T07:41:49.456Z,100070.47
2022-07-28T07:44:17.208Z,100070.97
2022-07-28T07:46:44.874Z,100069.09
2022-07-28T07:49:12.296Z,100084.28
2022-07-28T07:51:39.606Z,100075.41
2022-07-28T07:54:06.880Z,100089.91
2022-07-28T07:56:37.216Z,100089.22
2022-07-28T07:59:04.524Z,100104.25
2022-07-28T08:01:31.836Z,100099.81
2022-07-28T08:04:10.596Z,100099.09
2022-07-28T08:06:38.201Z,100094.84
2022-07-28T08:09:07.202Z,100090.59
2022-07-28T08:11:34.538Z,100102.50
2022-07-28T08:14:01.840Z,100102.69
2022-07-28T08:16:29.277Z,100107.00
2022-07-28T08:18:58.442Z,100112.97
2022-07-28T08:21:26.361Z,100101.53
2022-07-28T08:23:55.871Z,100107.69
2022-07-28T08:26:23.378Z,100095.41
2022-07-28T08:28:51.027Z,100096.91
2022-07-28T08:31:21.941Z,100102.22
2022-07-28T08:33:53.926Z,100089.25
2022-07-28T08:36:22.260Z,100099.47
2022-07-28T08:38:50.074Z,100105.13
2022-07-28T08:41:20.543Z,100108.38
2022-07-28T08:43:49.895Z,100114.69
2022-07-28T08:46:17.538Z,100119.63
2022-07-28T08:48:45.909Z,100116.88
2022-07-28T08:51:13.454Z,100116.66
2022-07-28T08:53:41.179Z,100119.22
2022-07-28T08:56:09.687Z,100123.69
2022-07-28T08:58:37.689Z,100124.69
2022-07-28T09:01:06.927Z,100129.59
2022-07-28T09:03:34.787Z,100126.88
2022-07-28T09:06:02.234Z,100134.56
2022-07-28T09:08:29.510Z,100131.69
2022-07-28T09:10:56.971Z,100132.38
2022-07-28T09:13:24.310Z,100135.78
2022-07-28T09:15:51.650Z,100134.06
2022-07-28T09:18:19.034Z,100137.00
2022-07-28T09:20:46.415Z,100141.09
2022-07-28T09:23:42.961Z,100137.00
2022-07-28T09:26:12.592Z,100140.03
2022-07-28T09:28:47.125Z,100145.84
2022-07-28T09:31:14.471Z,100140.88
2022-07-28T09:33:52.459Z,100145.13
2022-07-28T09:36:20.739Z,100143.03
2022-07-28T09:38:48.425Z,100141.69
2022-07-28T09:41:19.737Z,100144.22
2022-07-28T09:43:52.533Z,100139.28
2022-07-28T09:46:23.348Z,100136.16
2022-07-28T09:48:51.264Z,100136.34
2022-07-28T09:51:20.270Z,100137.50
2022-07-28T09:53:47.613Z,100144.00
2022-07-28T09:56:15.058Z,100136.16
2022-07-28T09:58:52.827Z,100140.25
2022-07-28T10:01:21.185Z,100143.63
2022-07-28T10:03:53.408Z,100150.81
2022-07-28T10:06:28.418Z,100144.50
2022-07-28T10:08:57.399Z,100144.31
2022-07-28T10:11:27.315Z,100144.25
2022-07-28T10:13:56.124Z,100142.22
2022-07-28T10:16:24.515Z,100144.94
2022-07-28T10:18:52.241Z,100138.59
2022-07-28T10:21:20.568Z,100142.47
2022-07-28T10:23:55.233Z,100132.88
2022-07-28T10:26:28.524Z,100134.22
2022-07-28T10:28:56.622Z,100127.31
2022-07-28T10:31:30.324Z,100133.56
2022-07-28T10:33:59.562Z,100128.25
2022-07-28T10:36:27.988Z,100133.97
2022-07-28T10:38:59.614Z,100134.25
2022-07-28T10:41:30.019Z,100130.09
2022-07-28T10:43:57.538Z,100134.59
2022-07-28T10:46:25.636Z,100132.47
2022-07-28T10:48:53.008Z,100134.47
2022-07-28T10:51:21.159Z,100126.22
2022-07-28T10:53:54.492Z,100128.19
2022-07-28T10:56:34.297Z,100125.84
2022-07-28T10:59:22.226Z,100123.56
2022-07-28T11:01:56.294Z,100126.78
2022-07-28T11:04:42.342Z,100124.44
2022-07-28T11:07:13.606Z,100130.84
2022-07-28T11:09:40.942Z,100124.59
2022-07-28T11:12:09.688Z,100122.91
2022-07-28T11:14:39.198Z,100119.81
2022-07-28T11:17:10.427Z,100123.91
2022-07-28T11:19:55.860Z,100124.69
2022-07-28T11:22:33.630Z,100114.94
2022-07-28T11:25:19.609Z,100119.03
2022-07-28T11:27:52.725Z,100111.91
2022-07-28T11:30:25.952Z,100106.06
2022-07-28T11:32:56.032Z,100107.41
2022-07-28T11:35:24.472Z,100109.78
2022-07-28T11:38:01.020Z,100113.97
2022-07-28T11:40:37.851Z,100111.25
2022-07-28T11:43:37.785Z,100114.94
2022-07-28T11:46:10.027Z,100104.06
2022-07-28T11:48:39.898Z,100107.38
2022-07-28T11:51:07.332Z,100103.06
2022-07-28T11:53:37.274Z,100103.50
2022-07-28T11:56:08.539Z,100110.63
2022-07-28T11:58:36.133Z,100092.50
2022-07-28T12:01:17.737Z,100100.00
2022-07-28T12:03:50.382Z,100093.38
2022-07-28T12:06:29.226Z,100095.66
2022-07-28T12:08:57.065Z,100092.81
2022-07-28T12:11:25.536Z,100079.31
2022-07-28T12:14:03.008Z,100080.69
2022-07-28T12:16:31.647Z,100074.59
2022-07-28T12:19:02.713Z,100075.78
2022-07-28T12:21:46.192Z,100074.94
2022-07-28T12:24:31.759Z,100075.41
2022-07-28T12:27:03.930Z,100068.44
2022-07-28T12:29:32.281Z,100073.78
2022-07-28T12:32:04.835Z,100070.41
2022-07-28T12:34:33.478Z,100064.72
2022-07-28T12:37:02.470Z,100064.13
2022-07-28T12:39:30.973Z,100059.16
2022-07-28T12:42:03.558Z,100054.44
2022-07-28T12:44:40.689Z,100056.81
2022-07-28T12:47:09.585Z,100050.09
2022-07-28T12:49:37.532Z,100048.81
2022-07-28T12:52:14.613Z,100046.91
2022-07-28T12:54:41.880Z,100044.44
2022-07-28T12:57:41.212Z,100035.44
2022-07-28T13:00:12.178Z,100017.84
2022-07-28T13:02:40.804Z,100024.81
2022-07-28T13:05:08.374Z,100023.38
2022-07-28T13:07:35.738Z,100013.25
2022-07-28T13:10:07.014Z,100020.66
2022-07-28T13:12:39.799Z,100007.09
2022-07-28T13:15:15.732Z,100004.97
2022-07-28T13:17:50.654Z,100004.56
2022-07-28T13:20:18.613Z,100009.44
2022-07-28T13:22:46.706Z,100003.69
2022-07-28T13:25:14.555Z,100001.34
2022-07-28T13:27:41.922Z,99997.28
2022-07-28T13:30:10.271Z,99988.19
2022-07-28T13:32:37.620Z,99994.59
2022-07-28T13:35:05.874Z,99988.44
2022-07-28T13:37:42.288Z,99981.66
2022-07-28T13:40:09.667Z,99996.91
2022-07-28T13:42:36.946Z,99983.78
2022-07-28T13:45:04.980Z,99973.22
2022-07-28T13:47:38.784Z,99975.72
2022-07-28T13:50:07.325Z,99969.19
2022-07-28T13:52:37.562Z,99967.06
2022-07-28T13:55:06.234Z,99963.06
2022-07-28T13:57:36.454Z,99952.84
2022-07-28T14:00:07.506Z,99952.03
2022-07-28T14:02:36.698Z,99953.09
2022-07-28T14:05:04.529Z,99960.28
2022-07-28T14:07:31.873Z,99949.47
2022-07-28T14:09:59.571Z,99959.63
2022-07-28T14:12:26.852Z,99941.63
2022-07-28T14:14:54.108Z,99946.91
2022-07-28T14:20:10.441Z,99941.84
2022-07-28T14:22:37.695Z,99939.94
2022-07-28T14:25:05.125Z,99932.09
2022-07-28T14:27:32.661Z,99935.09
2022-07-28T14:30:00.032Z,99926.63
2022-07-28T14:32:31.867Z,99936.38
2022-07-28T14:34:59.184Z,99935.50
2022-07-28T14:37:27.031Z,99923.22
2022-07-28T14:39:54.323Z,99919.63
2022-07-28T14:42:21.571Z,99926.41
2022-07-28T14:44:48.847Z,99931.91
2022-07-28T14:47:17.688Z,99930.22
2022-07-28T14:49:57.251Z,99933.19
2022-07-28T14:52:26.431Z,99936.38
2022-07-28T14:54:57.356Z,99934.84
2022-07-28T14:57:52.003Z,99943.53
2022-07-28T15:00:13.435Z,99946.53
2022-07-28T15:02:40.959Z,99951.38
2022-07-28T15:05:09.000Z,99951.97
2022-07-28T15:07:36.290Z,99940.09
2022-07-28T15:10:04.634Z,99946.06
2022-07-28T15:12:31.975Z,99935.09
2022-07-28T15:14:59.506Z,99941.03
2022-07-28T15:17:26.787Z,99937.19
2022-07-28T15:19:54.192Z,99931.69
2022-07-28T15:22:21.477Z,99921.94
2022-07-28T15:24:53.752Z,99922.38
2022-07-28T15:27:21.062Z,99926.38
2022-07-28T15:29:52.065Z,99924.69
2022-07-28T15:32:27.151Z,99918.78
2022-07-28T15:34:55.803Z,99924.28
2022-07-28T15:37:23.247Z,99913.50
2022-07-28T15:39:50.527Z,99914.94
2022-07-28T15:42:17.878Z,99910.06
2022-07-28T15:44:45.166Z,99911.97
2022-07-28T15:47:12.446Z,99912.56
2022-07-28T15:49:39.819Z,99914.69
2022-07-28T15:52:07.099Z,99920.44
2022-07-28T15:54:34.385Z,99920.63
2022-07-28T15:57:01.749Z,99925.31
2022-07-28T15:59:48.608Z,99923.59
2022-07-28T16:02:17.815Z,99933.38
2022-07-28T16:04:51.234Z,99938.06
2022-07-28T16:07:24.558Z,99948.84
2022-07-28T16:09:54.281Z,99939.75
2022-07-28T16:12:28.111Z,99938.88
2022-07-28T16:14:55.638Z,99943.94
2022-07-28T16:17:23.101Z,99953.19
2022-07-28T16:19:54.078Z,99959.13
2022-07-28T16:22:21.606Z,99952.00
2022-07-28T16:24:49.300Z,99950.09
2022-07-28T16:27:17.044Z,99951.22
2022-07-28T16:29:44.871Z,99954.81
2022-07-28T16:32:12.822Z,99956.06
2022-07-28T16:34:40.112Z,99957.94
2022-07-28T16:37:07.619Z,99960.06
2022-07-28T16:39:34.963Z,99954.31
2022-07-28T16:42:03.012Z,99954.97
2022-07-28T16:44:30.787Z,99963.22
2022-07-28T16:46:58.274Z,99962.63
2022-07-28T16:49:25.731Z,99959.63
2022-07-28T16:51:54.578Z,99956.00
2022-07-28T16:54:22.146Z,99958.44
2022-07-28T16:56:49.776Z,99952.34
2022-07-28T16:59:17.254Z,99961.13
2022-07-28T17:01:46.499Z,99951.63
2022-07-28T17:04:18.119Z,99950.78
2022-07-28T17:06:45.784Z,99956.72
2022-07-28T17:09:15.885Z,99966.31
2022-07-28T17:11:43.345Z,99970.38
2022-07-28T17:14:11.264Z,99974.44
2022-07-28T17:16:38.709Z,99978.50
2022-07-28T17:19:05.996Z,99984.28
2022-07-28T17:21:33.329Z,99985.41
2022-07-28T17:24:00.569Z,99985.28
2022-07-28T17:27:32.511Z,99988.59
2022-07-28T17:29:16.601Z,99988.69
2022-07-28T17:31:44.244Z,99984.78
2022-07-28T17:34:14.105Z,99981.13
2022-07-28T17:36:42.197Z,99981.41
2022-07-28T17:39:09.792Z,99986.56
2022-07-28T17:41:37.332Z,99983.31
2022-07-28T17:44:05.723Z,99990.75
2022-07-28T17:46:34.945Z,99993.16
2022-07-28T17:49:03.097Z,99997.00
2022-07-28T17:51:30.854Z,100006.38
2022-07-28T17:53:58.279Z,100015.38
2022-07-28T17:56:25.928Z,100021.81
2022-07-28T17:58:53.488Z,100030.97
2022-07-28T18:01:20.868Z,100023.19
2022-07-28T18:03:56.496Z,100029.78
2022-07-28T18:06:32.860Z,100025.44
2022-07-28T18:09:06.854Z,100032.50
2022-07-28T18:11:55.706Z,100041.81
2022-07-28T18:14:26.661Z,100043.59
2022-07-28T18:16:54.350Z,100043.09
2022-07-28T18:19:21.743Z,100043.84
2022-07-28T18:21:49.037Z,100063.06
2022-07-28T18:24:16.975Z,100065.25
2022-07-28T18:26:44.634Z,100071.00
2022-07-28T18:29:11.883Z,100068.88
2022-07-28T18:31:45.476Z,100079.16
2022-07-28T18:34:14.111Z,100079.19
2022-07-28T18:36:41.686Z,100080.59
2022-07-28T18:39:09.007Z,100095.69
2022-07-28T18:41:46.942Z,100090.91
2022-07-28T18:44:16.380Z,100090.25
2022-07-28T18:46:44.156Z,100101.34
2022-07-28T18:49:11.629Z,100098.28
2022-07-28T18:51:39.006Z,100108.72
2022-07-28T18:54:07.060Z,100119.28
2022-07-28T18:56:34.378Z,100123.03
2022-07-28T18:59:01.646Z,100107.00
2022-07-28T19:01:29.032Z,100118.97
2022-07-28T19:03:56.384Z,100114.34
2022-07-28T19:06:24.399Z,100105.44
2022-07-28T19:08:51.685Z,100127.16
2022-07-28T19:11:20.029Z,100118.28
2022-07-28T19:13:48.055Z,100118.94
2022-07-28T19:16:15.383Z,100128.50
2022-07-28T19:18:42.723Z,100131.25
2022-07-28T19:21:10.028Z,100137.75
2022-07-28T19:23:37.298Z,100125.97
2022-07-28T19:26:04.627Z,100134.31
2022-07-28T19:28:31.999Z,100127.31
2022-07-28T19:31:01.762Z,100130.56
2022-07-28T19:33:43.578Z,100125.09
2022-07-28T19:36:13.506Z,100134.16
2022-07-28T19:38:41.347Z,100116.06
2022-07-28T19:41:09.100Z,100134.31
2022-07-28T19:43:36.441Z,100128.19
2022-07-28T19:46:03.792Z,100123.75
2022-07-28T19:48:31.141Z,100130.91
2022-07-28T19:50:58.431Z,100125.13
2022-07-28T19:53:31.802Z,100124.94
2022-07-28T19:55:59.736Z,100115.56
2022-07-28T19:58:28.071Z,100114.19
2022-07-28T20:00:56.401Z,100112.97
2022-07-28T20:04:03.731Z,100123.50
2022-07-28T20:06:11.822Z,100126.72
2022-07-28T20:08:39.215Z,100125.53
2022-07-28T20:11:06.976Z,100115.59
2022-07-28T20:13:34.377Z,100119.88
2022-07-28T20:16:01.691Z,100126.31
2022-07-28T20:18:28.997Z,100137.56
2022-07-28T20:20:56.282Z,100145.22
2022-07-28T20:23:23.909Z,100138.19
2022-07-28T20:25:51.318Z,100145.66
2022-07-28T20:28:18.645Z,100143.28
2022-07-28T20:30:45.986Z,100149.06
2022-07-28T20:33:13.272Z,100149.91
2022-07-28T20:35:40.557Z,100151.06
2022-07-28T20:38:08.426Z,100148.69
2022-07-28T20:40:35.902Z,100150.72
2022-07-28T20:43:03.296Z,100164.84
2022-07-28T20:45:31.811Z,100166.50
2022-07-28T20:47:59.415Z,100172.13
2022-07-28T20:50:26.785Z,100167.16
2022-07-28T20:52:54.057Z,100169.19
2022-07-28T20:55:21.480Z,100173.94
2022-07-28T20:57:53.809Z,100168.66
2022-07-28T21:00:21.755Z,100185.16
2022-07-28T21:02:49.141Z,100177.50
2022-07-28T21:05:26.575Z,100171.66
2022-07-28T21:08:05.802Z,100175.34
2022-07-28T21:10:34.197Z,100187.88
2022-07-28T21:13:01.529Z,100181.66
2022-07-28T21:15:29.423Z,100182.81
2022-07-28T21:17:57.261Z,100187.41
2022-07-28T21:20:25.087Z,100191.69
2022-07-28T21:22:52.460Z,100181.44
2022-07-28T21:25:19.928Z,100184.63
2022-07-28T21:28:05.978Z,100174.91
2022-07-28T21:30:33.327Z,100176.91
2022-07-28T21:33:00.703Z,100174.38
2022-07-28T21:35:28.027Z,100180.13
2022-07-28T21:37:55.345Z,100182.00
2022-07-28T21:40:22.656Z,100176.69
2022-07-28T21:42:49.991Z,100172.97
2022-07-28T21:45:17.279Z,100175.91
2022-07-28T21:47:44.598Z,100172.88
2022-07-28T21:50:11.913Z,100183.75
2022-07-28T21:52:39.406Z,100183.94
2022-07-28T21:55:07.636Z,100184.94
2022-07-28T21:57:35.224Z,100190.22
2022-07-28T22:00:03.005Z,100195.97
2022-07-28T22:02:30.286Z,100191.72
2022-07-28T22:05:00.264Z,100199.66
2022-07-28T22:07:27.684Z,100205.22
2022-07-28T22:09:54.983Z,100203.69
2022-07-28T22:12:22.287Z,100207.72
2022-07-28T22:14:49.554Z,100209.91
2022-07-28T22:17:17.747Z,100214.97
2022-07-28T22:19:45.106Z,100225.63
2022-07-28T22:22:12.379Z,100229.66
2022-07-28T22:24:39.662Z,100226.25
2022-07-28T22:27:07.006Z,100232.69
2022-07-28T22:29:34.247Z,100218.53
2022-07-28T22:32:01.652Z,100217.25
2022-07-28T22:34:29.034Z,100229.59
2022-07-28T22:36:56.398Z,100233.63
2022-07-28T22:39:23.638Z,100228.19
2022-07-28T22:41:50.929Z,100233.94
2022-07-28T22:44:18.580Z,100233.69
2022-07-28T22:46:46.707Z,100230.66
2022-07-28T22:49:14.065Z,100213.59
2022-07-28T22:51:47.834Z,100212.69
2022-07-28T22:54:16.325Z,100211.28
2022-07-28T22:56:43.839Z,100210.00
2022-07-28T22:59:11.379Z,100206.03
2022-07-28T23:01:41.815Z,100202.91
2022-07-28T23:04:09.130Z,100204.25
2022-07-28T23:06:36.415Z,100198.38
2022-07-28T23:09:03.795Z,100184.41
2022-07-28T23:11:31.114Z,100183.00
2022-07-28T23:13:58.398Z,100183.59
2022-07-28T23:16:25.709Z,100172.31
2022-07-28T23:18:52.995Z,100165.34
2022-07-28T23:21:20.519Z,100159.91
2022-07-28T23:23:47.802Z,100163.06
2022-07-28T23:26:15.138Z,100153.66
2022-07-28T23:28:42.498Z,100146.84
2022-07-28T23:31:09.805Z,100153.25
2022-07-28T23:33:55.586Z,100141.97
2022-07-28T23:36:26.942Z,100138.78
2022-07-28T23:38:58.834Z,100136.94
2022-07-28T23:41:26.878Z,100137.13
2022-07-28T23:43:54.254Z,100140.66
2022-07-28T23:46:21.789Z,100145.97
2022-07-28T23:48:49.969Z,100144.56
2022-07-28T23:51:17.359Z,100156.03
2022-07-28T23:53:44.643Z,100161.22
2022-07-28T23:56:13.683Z,100167.25
2022-07-28T23:58:41.284Z,100173.66
